Archiv-/Tagesdaten

--Timestamp---	Temp	Chill	HIndex	Humid	Dewpt	Wind	HiWind	WindDir	Rain	Barom	Solar	ET	UV
--------------	----	-----	------	-----	-----	----	------	-------	----	-----	-----	--	--
20080315 00:05	6.1	3.8	6.1	91	4.8	11	19	292	0.20	1015.716	0	0.000	0
20080315 00:10	6.1	4.9	6.1	91	4.8	6	14	315	0.00	1015.750	0	0.000	0
20080315 00:15	6.1	6.1	6.1	91	4.7	5	10	315	0.20	1015.750	0	0.000	0
20080315 00:20	6.0	6.0	6.0	91	4.6	3	6	315	0.20	1015.886	0	0.000	0
20080315 00:25	5.9	5.9	5.9	91	4.6	3	10	292	0.00	1015.919	0	0.000	0
20080315 00:30	5.9	5.9	5.9	92	4.7	2	6	315	0.20	1015.784	0	0.000	0
20080315 00:35	5.9	5.9	5.9	92	4.7	2	5	315	0.00	1015.784	0	0.000	0
20080315 00:40	5.9	5.9	5.9	92	4.7	5	11	292	0.20	1015.852	0	0.000	0
20080315 00:45	5.9	5.9	5.9	92	4.7	5	8	270	0.00	1015.852	0	0.000	0
20080315 00:50	5.8	5.8	5.8	92	4.6	3	8	270	0.20	1015.818	0	0.000	0
20080315 00:55	5.8	5.8	5.8	92	4.6	3	6	270	0.00	1015.886	0	0.000	0
20080315 01:00	5.7	5.7	5.7	91	4.3	3	8	292	0.00	1015.886	0	0.000	0
20080315 01:05	5.6	5.6	5.6	91	4.2	5	10	292	0.00	1015.919	0	0.000	0
20080315 01:10	5.5	5.5	5.5	91	4.1	3	8	292	0.20	1015.886	0	0.000	0
20080315 01:15	5.4	5.4	5.4	91	4.1	3	6	292	0.00	1015.987	0	0.000	0
20080315 01:20	5.4	5.4	5.4	91	4.0	5	6	292	0.00	1015.987	0	0.000	0
20080315 01:25	5.3	5.3	5.3	91	4.0	3	6	292	0.00	1016.055	0	0.000	0
20080315 01:30	5.3	5.3	5.3	91	3.9	5	10	292	0.00	1016.055	0	0.000	0
20080315 01:35	5.2	5.2	5.2	91	3.8	5	6	270	0.20	1016.123	0	0.000	0
20080315 01:40	5.1	5.1	5.1	91	3.8	3	5	270	0.00	1016.089	0	0.000	0
20080315 01:45	5.1	5.1	5.1	91	3.7	2	6	270	0.00	1016.123	0	0.000	0
20080315 01:50	5.0	5.0	5.0	91	3.7	2	6	270	0.20	1016.156	0	0.000	0
20080315 01:55	4.9	4.9	4.9	91	3.5	3	8	247	0.00	1016.089	0	0.000	0
20080315 02:00	4.8	4.8	4.8	91	3.5	3	8	247	0.00	1016.055	0	0.000	0
20080315 02:05	4.8	4.8	4.8	91	3.4	3	8	247	0.00	1015.953	0	0.000	0
20080315 02:10	4.7	4.7	4.7	92	3.5	3	8	225	0.00	1015.852	0	0.000	0
20080315 02:15	4.8	4.8	4.8	92	3.6	3	6	225	0.20	1015.886	0	0.000	0
20080315 02:20	4.7	4.7	4.7	92	3.5	2	8	225	0.00	1015.852	0	0.000	0
20080315 02:25	4.8	4.8	4.8	92	3.6	2	6	225	0.00	1015.953	0	0.000	0
20080315 02:30	4.8	4.8	4.8	92	3.6	2	5	225	0.00	1015.953	0	0.000	0
20080315 02:35	4.7	4.7	4.7	92	3.5	2	6	225	0.00	1015.987	0	0.000	0
20080315 02:40	4.8	4.8	4.8	92	3.6	2	8	225	0.00	1015.886	0	0.000	0
20080315 02:45	4.8	4.8	4.8	92	3.6	2	5	225	0.00	1015.987	0	0.000	0
20080315 02:50	4.8	4.8	4.8	92	3.6	2	5	225	0.00	1015.886	0	0.000	0
20080315 02:55	4.8	4.8	4.8	92	3.6	2	5	225	0.00	1015.818	0	0.000	0
20080315 03:00	4.8	4.8	4.8	92	3.6	3	6	225	0.00	1015.784	0	0.000	0
20080315 03:05	4.8	4.8	4.8	92	3.6	2	5	225	0.00	1015.818	0	0.000	0
20080315 03:10	4.8	4.8	4.8	92	3.6	0	3	225	0.00	1015.818	0	0.000	0
20080315 03:15	4.8	4.8	4.8	92	3.6	0	2	225	0.00	1015.818	0	0.000	0
20080315 03:20	4.8	4.8	4.8	92	3.6	0	5	225	0.00	1015.784	0	0.000	0
20080315 03:25	4.8	4.8	4.8	92	3.6	0	3	225	0.00	1015.818	0	0.000	0
20080315 03:30	4.8	4.8	4.8	92	3.6	2	5	225	0.00	1015.750	0	0.000	0
20080315 03:35	4.8	4.8	4.8	92	3.6	2	5	225	0.00	1015.750	0	0.000	0
20080315 03:40	4.8	4.8	4.8	92	3.6	2	5	225	0.00	1015.784	0	0.000	0
20080315 03:45	4.9	4.9	4.9	92	3.7	0	2	225	0.00	1015.750	0	0.000	0
20080315 03:50	4.9	4.9	4.9	92	3.7	2	5	225	0.00	1015.716	0	0.000	0
20080315 03:55	4.9	4.9	4.9	92	3.8	0	3	225	0.00	1015.649	0	0.000	0
20080315 04:00	4.9	4.9	4.9	92	3.8	0	3	225	0.00	1015.581	0	0.000	0
20080315 04:05	4.9	4.9	4.9	92	3.8	0	3	225	0.00	1015.784	0	0.000	0
20080315 04:10	4.9	4.9	4.9	93	3.9	2	5	225	0.00	1015.750	0	0.000	0
20080315 04:15	4.9	4.9	4.9	93	3.9	0	3	225	0.00	1015.750	0	0.000	0
20080315 04:20	4.9	4.9	4.9	93	3.9	2	3	225	0.00	1015.682	0	0.000	0
20080315 04:25	4.9	4.9	4.9	92	3.8	2	6	225	0.00	1015.682	0	0.000	0
20080315 04:30	4.9	4.9	4.9	92	3.8	3	6	225	0.00	1015.682	0	0.000	0
20080315 04:35	4.9	4.9	4.9	93	3.9	2	3	225	0.00	1015.750	0	0.000	0
20080315 04:40	4.9	4.9	4.9	93	3.9	0	3	225	0.00	1015.784	0	0.000	0
20080315 04:45	4.9	4.9	4.9	93	3.9	0	3	225	0.00	1015.886	0	0.000	0
20080315 04:50	5.0	5.0	5.0	93	4.0	2	5	225	0.00	1015.886	0	0.000	0
20080315 04:55	5.0	5.0	5.0	98	4.7	0	3	225	0.00	1015.886	0	0.000	0
20080315 05:00	5.0	5.0	5.0	98	4.7	0	2	225	0.00	1015.953	0	0.000	0
20080315 05:05	5.0	5.0	5.0	93	4.0	0	3	225	0.00	1015.886	0	0.000	0
20080315 05:10	5.0	5.0	5.0	93	4.0	0	0	225	0.00	1015.886	0	0.000	0
20080315 05:15	5.0	5.0	5.0	93	4.0	0	3	225	0.00	1015.919	0	0.000	0
20080315 05:20	5.1	5.1	5.1	93	4.0	0	2	225	0.00	1015.886	0	0.000	0
20080315 05:25	5.0	5.0	5.0	93	4.0	0	6	225	0.00	1015.852	0	0.000	0
20080315 05:30	5.0	5.0	5.0	98	4.7	0	3	225	0.00	1015.852	0	0.000	0
20080315 05:35	5.0	5.0	5.0	98	4.7	0	3	225	0.00	1015.852	0	0.000	0
20080315 05:40	5.0	5.0	5.0	98	4.7	0	2	225	0.00	1015.750	0	0.000	0
20080315 05:45	5.0	5.0	5.0	93	4.0	0	2	225	0.00	1015.649	0	0.000	0
20080315 05:50	5.0	5.0	5.0	93	4.0	0	3	225	0.00	1015.615	0	0.000	0
20080315 05:55	4.9	4.9	4.9	93	3.9	0	3	225	0.00	1015.547	0	0.000	0
20080315 06:00	4.9	4.9	4.9	93	3.9	2	5	225	0.00	1015.581	0	0.000	0
20080315 06:05	4.9	4.9	4.9	93	3.9	2	5	225	0.00	1015.513	0	0.000	0
20080315 06:10	4.9	4.9	4.9	93	3.9	2	5	180	0.00	1015.547	0	0.000	0
20080315 06:15	4.8	4.8	4.8	93	3.8	0	2	180	0.20	1015.682	0	0.000	0
20080315 06:20	4.8	4.8	4.8	93	3.8	0	5	180	0.00	1015.615	0	0.000	0
20080315 06:25	4.8	4.8	4.8	93	3.8	0	2	180	0.00	1015.750	0	0.000	0
20080315 06:30	4.8	4.8	4.8	93	3.8	0	3	180	0.00	1015.649	0	0.000	0
20080315 06:35	4.8	4.8	4.8	93	3.8	0	3	180	0.00	1015.547	0	0.000	0
20080315 06:40	4.8	4.8	4.8	93	3.7	2	6	180	0.00	1015.581	0	0.000	0
20080315 06:45	4.8	4.8	4.8	93	3.7	2	5	157	0.00	1015.547	0	0.000	0
20080315 06:50	4.8	4.8	4.8	93	3.7	2	6	180	0.00	1015.581	0	0.000	0
20080315 06:55	4.8	4.8	4.8	93	3.7	2	6	180	0.00	1015.581	0	0.000	0
20080315 07:00	4.8	4.8	4.8	93	3.7	2	5	157	0.00	1015.445	0	0.000	0
20080315 07:05	4.8	4.8	4.8	93	3.8	2	6	157	0.00	1015.479	3	0.000	0
20080315 07:10	4.8	4.8	4.8	93	3.8	2	5	180	0.00	1015.344	9	0.000	0
20080315 07:15	4.9	4.9	4.9	93	3.9	2	8	157	0.00	1015.479	9	0.000	0
20080315 07:20	4.9	4.9	4.9	93	3.9	0	3	180	0.20	1015.615	9	0.000	0
20080315 07:25	4.9	4.9	4.9	92	3.7	0	3	157	0.40	1015.649	12	0.000	0
20080315 07:30	4.9	4.9	4.9	92	3.7	0	3	157	0.20	1015.547	14	0.000	0
20080315 07:35	4.9	4.9	4.9	93	3.9	2	5	157	0.20	1015.479	18	0.000	0
20080315 07:40	4.9	4.9	4.9	92	3.7	0	5	157	0.20	1015.581	23	0.000	0
20080315 07:45	4.9	4.9	4.9	92	3.7	0	3	157	0.00	1015.649	25	0.000	0
20080315 07:50	4.9	4.9	4.9	93	3.9	0	5	157	0.20	1015.581	31	0.000	0
20080315 07:55	4.9	4.9	4.9	92	3.8	2	5	157	0.00	1015.479	29	0.000	0
20080315 08:00	4.9	4.9	4.9	93	3.9	2	6	157	0.20	1015.310	27	0.000	0
20080315 08:05	4.9	4.9	4.9	93	3.9	2	8	157	0.20	1015.581	29	0.000	0
20080315 08:10	4.9	4.9	4.9	93	3.9	2	5	157	0.20	1015.547	26	0.000	0
20080315 08:15	4.9	4.9	4.9	93	3.9	2	8	180	0.20	1015.445	29	0.000	0
20080315 08:20	4.9	4.9	4.9	93	3.9	3	10	157	0.00	1015.344	52	0.000	0
20080315 08:25	5.0	5.0	5.0	93	4.0	3	11	157	0.00	1015.344	63	0.000	0
20080315 08:30	5.1	5.1	5.1	93	4.0	2	8	157	0.00	1015.378	76	0.000	0
20080315 08:35	5.1	5.1	5.1	92	3.9	2	8	157	0.00	1015.344	78	0.000	0
20080315 08:40	5.2	5.2	5.2	92	4.0	2	8	157	0.00	1015.378	90	0.000	0
20080315 08:45	5.3	5.3	5.3	92	4.1	2	5	157	0.00	1015.310	113	0.000	1
20080315 08:50	5.4	5.4	5.4	91	4.0	2	8	157	0.00	1015.174	132	0.000	1
20080315 08:55	5.5	5.5	5.5	91	4.1	3	11	135	0.00	1015.174	105	0.000	1
20080315 09:00	5.6	5.6	5.6	91	4.3	0	5	157	0.00	1015.208	135	0.020	1
20080315 09:05	5.8	5.8	5.8	91	4.4	2	6	157	0.00	1015.141	144	0.000	1
20080315 09:10	5.9	5.9	5.9	90	4.4	2	8	157	0.00	1015.039	134	0.000	1
20080315 09:15	6.1	6.1	6.1	90	4.6	5	13	157	0.00	1015.005	140	0.000	1
20080315 09:20	6.3	6.3	6.3	89	4.7	3	8	157	0.00	1014.971	141	0.000	1
20080315 09:25	6.6	6.6	6.6	89	4.9	3	10	157	0.00	1014.836	133	0.000	1
20080315 09:30	6.7	6.7	6.7	88	4.9	2	8	157	0.00	1014.904	152	0.000	1
20080315 09:35	7.0	7.0	7.0	90	5.5	2	5	157	0.00	1014.904	191	0.000	1
20080315 09:40	7.2	7.2	7.2	88	5.4	2	3	157	0.00	1014.870	195	0.000	1
20080315 09:45	7.6	7.6	7.6	89	5.9	3	10	112	0.00	1014.633	148	0.000	1
20080315 09:50	7.7	7.7	7.7	86	5.5	3	10	157	0.00	1014.463	72	0.000	1
20080315 09:55	7.9	7.9	7.9	87	5.9	3	8	157	0.00	1014.463	54	0.000	0
20080315 10:00	8.1	8.1	8.1	86	5.9	2	10	180	0.00	1014.362	64	0.040	1
20080315 10:05	8.2	8.2	8.2	86	6.0	3	6	135	0.00	1014.226	48	0.000	0
20080315 10:10	8.4	8.4	8.4	85	6.0	2	8	180	0.00	1014.260	54	0.000	0
20080315 10:15	8.4	8.4	8.4	85	6.1	2	8	180	0.00	1014.260	59	0.000	1
20080315 10:20	8.7	8.7	8.7	85	6.3	3	10	180	0.00	1014.057	55	0.000	1
20080315 10:25	8.8	8.8	8.8	83	6.1	3	8	157	0.00	1014.057	51	0.000	0
20080315 10:30	8.9	8.9	8.9	84	6.4	3	8	157	0.00	1013.854	52	0.000	0
20080315 10:35	9.1	9.1	9.1	83	6.3	2	5	157	0.00	1013.854	268	0.000	2
20080315 10:40	9.3	9.3	9.3	85	6.9	2	6	112	0.00	1013.888	488	0.000	2
20080315 10:45	9.5	9.5	9.5	84	6.9	5	10	135	0.00	1013.854	566	0.000	3
20080315 10:50	9.6	9.6	9.6	84	7.0	5	10	135	0.00	1013.718	237	0.000	3
20080315 10:55	9.9	9.9	9.9	83	7.2	3	10	135	0.00	1013.549	570	0.000	3
20080315 11:00	10.1	10.1	10.1	80	6.8	3	8	157	0.00	1013.583	587	0.100	3
20080315 11:05	10.2	10.2	10.2	83	7.4	3	6	135	0.00	1013.583	614	0.000	3
20080315 11:10	10.5	10.5	10.5	80	7.2	2	5	157	0.00	1013.414	608	0.000	3
20080315 11:15	10.6	10.6	10.6	80	7.2	2	5	157	0.00	1013.380	618	0.000	4
20080315 11:20	10.7	10.7	10.7	79	7.2	2	8	157	0.00	1013.278	562	0.000	4
20080315 11:25	10.7	10.7	10.7	79	7.2	2	8	157	0.00	1013.177	608	0.000	4
20080315 11:30	10.9	10.9	10.9	80	7.6	3	6	135	0.00	1013.177	444	0.000	3
20080315 11:35	11.0	11.0	11.0	79	7.5	3	8	180	0.00	1013.109	615	0.000	4
20080315 11:40	11.0	11.0	11.0	80	7.7	5	10	135	0.00	1013.075	658	0.000	4
20080315 11:45	11.0	11.0	11.0	80	7.7	5	11	135	0.00	1012.939	144	0.000	3
20080315 11:50	11.1	11.1	11.1	80	7.7	2	10	157	0.00	1012.838	582	0.000	4
20080315 11:55	11.2	11.2	11.2	77	7.3	3	11	112	0.00	1012.736	703	0.000	4
20080315 12:00	11.4	11.4	11.4	75	7.2	3	10	135	0.00	1012.499	729	0.220	4
20080315 12:05	11.7	11.7	11.7	73	7.0	2	6	135	0.00	1012.635	763	0.000	4
20080315 12:10	11.8	11.8	11.8	75	7.5	3	14	135	0.00	1012.567	801	0.000	4
20080315 12:15	11.7	11.7	11.7	76	7.6	3	8	135	0.00	1012.601	631	0.000	4
20080315 12:20	11.6	11.6	11.6	75	7.3	2	5	135	0.00	1012.465	250	0.000	3
20080315 12:25	11.7	11.7	11.7	75	7.4	2	6	135	0.00	1012.398	362	0.000	4
20080315 12:30	11.8	11.8	11.8	73	7.1	2	6	157	0.00	1012.296	433	0.000	4
20080315 12:35	12.0	12.0	12.0	75	7.7	2	8	157	0.00	1012.093	736	0.000	4
20080315 12:40	12.2	12.2	12.2	75	7.9	3	8	45	0.00	1012.025	742	0.000	4
20080315 12:45	12.3	12.3	12.3	74	7.8	5	10	45	0.00	1011.991	792	0.000	4
20080315 12:50	12.3	12.3	12.3	73	7.6	5	8	67	0.00	1011.924	608	0.000	4
20080315 12:55	12.3	12.3	12.3	75	8.0	6	16	67	0.00	1011.856	726	0.000	4
20080315 13:00	12.1	12.1	12.1	73	7.4	6	10	45	0.00	1011.720	436	0.240	3
20080315 13:05	12.1	12.1	12.1	74	7.6	5	11	90	0.00	1011.788	554	0.000	3
20080315 13:10	12.3	12.3	12.3	71	7.2	5	8	67	0.00	1011.686	700	0.000	4
20080315 13:15	12.3	12.3	12.3	71	7.2	5	8	67	0.00	1011.585	712	0.000	4
20080315 13:20	12.4	12.4	12.4	72	7.5	5	10	45	0.00	1011.551	716	0.000	4
20080315 13:25	12.3	12.3	12.3	75	8.0	8	14	45	0.00	1011.483	666	0.000	3
20080315 13:30	11.9	11.9	11.9	75	7.7	10	16	45	0.00	1011.382	333	0.000	3
20080315 13:35	12.0	12.0	12.0	76	7.9	8	18	45	0.00	1011.246	573	0.000	3
20080315 13:40	11.9	11.9	11.9	77	8.0	10	18	67	0.00	1011.179	173	0.000	3
20080315 13:45	11.8	11.8	11.8	78	8.1	8	13	67	0.00	1011.043	192	0.000	2
20080315 13:50	11.9	11.9	11.9	79	8.4	10	18	67	0.00	1010.874	594	0.000	3
20080315 13:55	12.2	12.2	12.2	79	8.6	8	14	67	0.00	1010.772	591	0.000	3
20080315 14:00	12.5	12.5	12.5	78	8.8	6	13	90	0.00	1010.671	535	0.220	3
20080315 14:05	12.5	12.5	12.5	78	8.8	10	16	67	0.00	1010.433	537	0.000	3
20080315 14:10	12.5	12.5	12.5	77	8.6	11	16	67	0.00	1010.366	453	0.000	3
20080315 14:15	12.4	12.4	12.4	77	8.5	8	14	67	0.00	1010.433	440	0.000	2
20080315 14:20	12.4	12.4	12.4	77	8.5	8	16	67	0.00	1010.332	329	0.000	2
20080315 14:25	12.3	12.3	12.3	77	8.4	8	14	67	0.00	1010.264	298	0.000	2
20080315 14:30	12.4	12.4	12.4	76	8.3	6	14	67	0.00	1010.196	411	0.000	2
20080315 14:35	12.5	12.5	12.5	78	8.8	8	14	67	0.00	1010.061	352	0.000	2
20080315 14:40	12.7	12.7	12.7	75	8.3	5	10	90	0.00	1009.892	254	0.000	2
20080315 14:45	12.6	12.6	12.6	76	8.4	5	11	67	0.00	1009.790	232	0.000	2
20080315 14:50	12.6	12.6	12.6	73	7.8	5	10	90	0.00	1009.722	306	0.000	2
20080315 14:55	12.7	12.7	12.7	73	8.0	6	10	90	0.00	1009.621	402	0.000	2
20080315 15:00	12.9	12.9	12.9	71	7.8	5	11	90	0.00	1009.485	286	0.160	2
20080315 15:05	13.1	13.1	13.1	73	8.3	8	19	135	0.00	1009.485	247	0.000	2
20080315 15:10	13.3	13.3	13.3	71	8.1	8	16	112	0.00	1009.418	190	0.000	2
20080315 15:15	13.3	13.3	13.3	72	8.3	5	11	112	0.00	1009.316	169	0.000	1
20080315 15:20	13.2	13.2	13.2	72	8.2	6	11	67	0.00	1009.181	159	0.000	1
20080315 15:25	13.1	13.1	13.1	71	8.0	8	16	112	0.00	1009.045	152	0.000	1
20080315 15:30	13.1	13.1	13.1	72	8.1	6	11	112	0.00	1008.943	150	0.000	1
20080315 15:35	13.0	13.0	13.0	71	7.9	5	11	135	0.00	1008.876	145	0.000	1
20080315 15:40	12.9	12.9	12.9	72	8.0	8	16	112	0.00	1008.842	144	0.000	1
20080315 15:45	12.9	12.9	12.9	71	7.8	6	16	112	0.00	1008.673	164	0.000	1
20080315 15:50	12.8	12.8	12.8	71	7.7	8	14	112	0.00	1008.740	157	0.000	1
20080315 15:55	12.8	12.8	12.8	71	7.7	10	18	112	0.00	1008.639	141	0.000	1
20080315 16:00	12.7	12.7	12.7	72	7.8	8	16	135	0.00	1008.469	128	0.080	1
20080315 16:05	12.7	12.7	12.7	72	7.7	6	16	135	0.00	1008.402	122	0.000	1
20080315 16:10	12.6	12.6	12.6	72	7.6	10	18	112	0.00	1008.334	129	0.000	1
20080315 16:15	12.4	12.4	12.4	73	7.7	8	16	112	0.00	1008.435	125	0.000	1
20080315 16:20	12.3	12.3	12.3	73	7.6	6	16	112	0.00	1008.402	116	0.000	1
20080315 16:25	12.3	12.3	12.3	74	7.8	6	11	135	0.00	1008.435	116	0.000	0
20080315 16:30	12.3	12.3	12.3	74	7.8	5	18	135	0.00	1008.402	115	0.000	0
20080315 16:35	12.2	12.2	12.2	74	7.7	8	16	112	0.00	1008.469	102	0.000	0
20080315 16:40	12.1	12.1	12.1	73	7.4	10	19	112	0.00	1008.334	95	0.000	0
20080315 16:45	12.0	12.0	12.0	75	7.7	6	16	112	0.00	1008.334	92	0.000	0
20080315 16:50	11.9	11.9	11.9	74	7.5	8	18	112	0.00	1008.165	87	0.000	0
20080315 16:55	11.8	11.8	11.8	75	7.5	5	10	112	0.00	1008.131	78	0.000	0
20080315 17:00	11.8	11.8	11.8	75	7.5	6	11	135	0.00	1008.097	68	0.060	0
20080315 17:05	11.7	11.7	11.7	75	7.4	5	11	112	0.00	1007.995	61	0.000	0
20080315 17:10	11.6	11.6	11.6	76	7.5	5	11	135	0.00	1007.928	54	0.000	0
20080315 17:15	11.4	11.4	11.4	76	7.4	3	6	135	0.00	1007.792	49	0.000	0
20080315 17:20	11.3	11.3	11.3	76	7.3	5	10	135	0.00	1007.826	44	0.000	0
20080315 17:25	11.2	11.2	11.2	76	7.1	5	11	135	0.00	1007.792	39	0.000	0
20080315 17:30	11.1	11.1	11.1	77	7.2	3	14	135	0.00	1007.792	34	0.000	0
20080315 17:35	11.0	11.0	11.0	77	7.1	3	10	135	0.00	1007.724	30	0.000	0
20080315 17:40	10.9	10.9	10.9	78	7.3	3	8	112	0.00	1007.724	26	0.000	0
20080315 17:45	10.8	10.8	10.8	78	7.1	2	5	135	0.00	1007.589	22	0.000	0
20080315 17:50	10.7	10.7	10.7	78	7.0	5	11	135	0.00	1007.453	18	0.000	0
20080315 17:55	10.6	10.6	10.6	78	6.9	5	10	135	0.00	1007.521	14	0.000	0
20080315 18:00	10.5	10.5	10.5	78	6.8	3	8	135	0.00	1007.487	11	0.020	0
20080315 18:05	10.4	10.4	10.4	78	6.7	3	8	135	0.00	1007.420	8	0.000	0
20080315 18:10	10.3	10.3	10.3	79	6.8	3	11	135	0.00	1007.386	3	0.000	0
20080315 18:15	10.2	10.2	10.2	79	6.7	3	10	135	0.00	1007.521	0	0.000	0
20080315 18:20	10.1	10.1	10.1	80	6.8	0	3	135	0.00	1007.453	0	0.000	0
20080315 18:25	10.0	10.0	10.0	80	6.7	2	6	135	0.00	1007.352	0	0.000	0
20080315 18:30	9.9	9.9	9.9	81	6.8	2	5	135	0.00	1007.318	0	0.000	0
20080315 18:35	9.8	9.8	9.8	81	6.7	0	3	135	0.00	1007.183	0	0.000	0
20080315 18:40	9.7	9.7	9.7	81	6.6	0	2	135	0.00	1007.216	0	0.000	0
20080315 18:45	9.6	9.6	9.6	82	6.6	2	6	135	0.00	1007.115	0	0.000	0
20080315 18:50	9.4	9.4	9.4	82	6.5	0	3	135	0.00	1007.013	0	0.000	0
20080315 18:55	9.3	9.3	9.3	83	6.6	0	3	135	0.00	1006.979	0	0.000	0
20080315 19:00	9.3	9.3	9.3	83	6.5	2	6	135	0.00	1006.945	0	0.000	0
20080315 19:05	9.2	9.2	9.2	83	6.4	2	8	135	0.00	1006.776	0	0.000	0
20080315 19:10	9.1	9.1	9.1	83	6.4	2	6	135	0.00	1006.844	0	0.000	0
20080315 19:15	9.1	9.1	9.1	83	6.3	3	6	135	0.00	1006.844	0	0.000	0
20080315 19:20	8.9	8.9	8.9	83	6.2	2	5	135	0.00	1006.776	0	0.000	0
20080315 19:25	8.9	8.9	8.9	84	6.3	2	5	135	0.00	1006.776	0	0.000	0
20080315 19:30	8.8	8.8	8.8	84	6.2	3	8	135	0.00	1006.607	0	0.000	0
20080315 19:35	8.7	8.7	8.7	84	6.2	3	8	135	0.00	1006.573	0	0.000	0
20080315 19:40	8.7	8.7	8.7	84	6.1	3	6	135	0.00	1006.505	0	0.000	0
20080315 19:45	8.6	8.6	8.6	84	6.1	2	8	135	0.00	1006.505	0	0.000	0
20080315 19:50	8.6	8.6	8.6	84	6.0	5	10	135	0.00	1006.370	0	0.000	0
20080315 19:55	8.6	8.6	8.6	84	6.0	5	8	135	0.00	1006.302	0	0.000	0
20080315 20:00	8.6	8.6	8.6	84	6.0	3	6	112	0.00	1006.268	0	0.020	0
20080315 20:05	8.5	8.5	8.5	84	6.0	2	10	112	0.00	1006.234	0	0.000	0
20080315 20:10	8.5	8.5	8.5	84	6.0	0	2	135	0.00	1006.201	0	0.000	0
20080315 20:15	8.4	8.4	8.4	84	5.8	0	3	135	0.00	1006.065	0	0.000	0
20080315 20:20	8.3	8.3	8.3	84	5.7	0	3	135	0.00	1006.065	0	0.000	0
20080315 20:25	8.2	8.2	8.2	85	5.9	0	5	135	0.00	1006.031	0	0.000	0
20080315 20:30	8.1	8.1	8.1	85	5.7	0	3	135	0.00	1005.930	0	0.000	0
20080315 20:35	8.1	8.1	8.1	85	5.7	0	3	135	0.00	1005.828	0	0.000	0
20080315 20:40	8.0	8.0	8.0	85	5.6	0	2	135	0.00	1005.794	0	0.000	0
20080315 20:45	7.9	7.9	7.9	85	5.5	0	2	135	0.00	1005.794	0	0.000	0
20080315 20:50	7.8	7.8	7.8	86	5.6	0	2	135	0.00	1005.693	0	0.000	0
20080315 20:55	7.7	7.7	7.7	86	5.5	0	2	135	0.00	1005.659	0	0.000	0
20080315 21:00	7.6	7.6	7.6	86	5.4	0	3	135	0.00	1005.625	0	0.000	0
20080315 21:05	7.6	7.6	7.6	86	5.4	0	2	135	0.00	1005.422	0	0.000	0
20080315 21:10	7.4	7.4	7.4	87	5.4	0	2	135	0.00	1005.320	0	0.000	0
20080315 21:15	7.3	7.3	7.3	87	5.3	0	3	135	0.00	1005.252	0	0.000	0
20080315 21:20	7.3	7.3	7.3	87	5.3	0	3	135	0.00	1005.252	0	0.000	0
20080315 21:25	7.2	7.2	7.2	87	5.2	0	2	135	0.00	1005.218	0	0.000	0
20080315 21:30	7.2	7.2	7.2	87	5.1	0	0	135	0.00	1005.117	0	0.000	0
20080315 21:35	7.1	7.1	7.1	88	5.2	0	0	135	0.00	1005.083	0	0.000	0
20080315 21:40	7.0	7.0	7.0	88	5.1	0	2	135	0.00	1005.083	0	0.000	0
20080315 21:45	7.0	7.0	7.0	88	5.1	0	2	135	0.00	1005.049	0	0.000	0
20080315 21:50	6.9	6.9	6.9	89	5.2	0	3	135	0.00	1004.981	0	0.000	0
20080315 21:55	6.9	6.9	6.9	89	5.3	0	3	135	0.00	1005.083	0	0.000	0
20080315 22:00	7.0	7.0	7.0	89	5.3	0	2	135	0.00	1004.812	0	0.000	0
20080315 22:05	7.0	7.0	7.0	89	5.3	0	2	135	0.00	1004.643	0	0.000	0
20080315 22:10	6.9	6.9	6.9	89	5.3	0	0	135	0.00	1004.541	0	0.000	0
20080315 22:15	6.8	6.8	6.8	89	5.1	0	0	135	0.00	1004.575	0	0.000	0
20080315 22:20	6.8	6.8	6.8	88	4.9	0	0	135	0.00	1004.440	0	0.000	0
20080315 22:25	6.7	6.7	6.7	89	5.0	0	0	135	0.00	1004.440	0	0.000	0
20080315 22:30	6.6	6.6	6.6	89	4.9	0	2	135	0.00	1004.406	0	0.000	0
20080315 22:35	6.5	6.5	6.5	89	4.8	0	2	135	0.00	1004.304	0	0.000	0
20080315 22:40	6.4	6.4	6.4	90	4.9	0	2	135	0.00	1004.270	0	0.000	0
20080315 22:45	6.5	6.5	6.5	90	5.0	0	3	135	0.00	1004.270	0	0.000	0
20080315 22:50	6.5	6.5	6.5	90	5.0	0	6	135	0.00	1004.135	0	0.000	0
20080315 22:55	6.4	6.4	6.4	90	4.9	0	3	135	0.00	1004.033	0	0.000	0
20080315 23:00	6.5	6.5	6.5	90	5.0	0	2	135	0.00	1004.101	0	0.000	0
20080315 23:05	6.4	6.4	6.4	90	4.9	0	0	135	0.00	1003.932	0	0.000	0
20080315 23:10	6.4	6.4	6.4	90	4.9	0	0	135	0.00	1003.864	0	0.000	0
20080315 23:15	6.3	6.3	6.3	90	4.8	0	2	135	0.00	1003.864	0	0.000	0
20080315 23:20	6.2	6.2	6.2	90	4.7	0	0	135	0.00	1003.728	0	0.000	0
20080315 23:25	6.1	6.1	6.1	90	4.6	0	0	135	0.00	1003.762	0	0.000	0
20080315 23:30	6.1	6.1	6.1	90	4.5	0	0	135	0.00	1003.762	0	0.000	0
20080315 23:35	5.9	5.9	5.9	90	4.4	0	0	135	0.00	1003.796	0	0.000	0
20080315 23:40	5.8	5.8	5.8	90	4.3	0	0	135	0.00	1003.695	0	0.000	0
20080315 23:45	5.8	5.8	5.8	91	4.5	0	0	135	0.00	1003.661	0	0.000	0
20080315 23:50	5.8	5.8	5.8	91	4.4	0	0	135	0.00	1003.661	0	0.000	0
20080315 23:55	5.7	5.7	5.7	91	4.4	0	0	135	0.00	1003.796	0	0.000	0
20080315 24:00	5.7	5.7	5.7	91	4.3	0	0	135	0.00	1003.796	0	0.000	0



Please note the license to use and transfer of this data:
http://creativecommons.org/licenses/by-nc-sa/3.0/deed.en

Bitte beachten sie die Lizenz zur Verwertung und Weitergabe der Daten:
http://creativecommons.org/licenses/by-nc-sa/3.0/deed.de

zurück zur Übersicht der Archivdaten (Monats und Tagesdaten)

Cookies helfen bei der Bereitstellung von Inhalten. Durch die Nutzung dieser Seiten erklärst du dich damit einverstanden, dass Cookies auf deinem Rechner gespeichert werden. Weitere Information